Time;durP1;ratioP1;P1;durP2;ratioP2;P2;SDS_P1;SDS_P2;PMS_P1;PMS_P2;Temp;Humidity;BMP_temperature;BMP_pressure;BME280_temperature;BME280_humidity;BME280_pressure;Samples;Min_cycle;Max_cycle;Signal;HPM_P1;HPM_P2
2021/06/23 00:01:32;;;;;;;32.63;13.88;;;640.50;2432.00;;;;;;5092777;28;20100;-64
2021/06/23 00:03:58;;;;;;;32.13;12.48;;;640.40;2432.00;;;;;;5092360;28;20036;-64
2021/06/23 00:06:23;;;;;;;41.05;14.70;;;640.40;2432.00;;;;;;5092573;28;20049;-63
2021/06/23 00:08:49;;;;;;;26.25;13.18;;;640.50;2432.00;;;;;;5092449;28;20031;-63
2021/06/23 00:11:15;;;;;;;25.02;12.95;;;640.50;2432.00;;;;;;5092714;28;20063;-63
2021/06/23 00:13:41;;;;;;;39.63;14.70;;;640.50;2432.00;;;;;;5092453;28;20051;-63
2021/06/23 00:16:08;;;;;;;36.25;14.38;;;640.50;2432.00;;;;;;5091960;28;20130;-64
2021/06/23 00:18:34;;;;;;;37.15;13.43;;;640.50;2406.40;;;;;;5092402;28;20477;-63
2021/06/23 00:21:00;;;;;;;37.78;13.65;;;640.50;2406.40;;;;;;5092013;28;20484;-63
2021/06/23 00:23:26;;;;;;;31.23;14.80;;;640.40;2406.40;;;;;;5092135;28;20039;-63
2021/06/23 00:25:52;;;;;;;29.70;13.18;;;640.40;2432.00;;;;;;5092433;28;20032;-64
2021/06/23 00:28:17;;;;;;;34.75;13.30;;;640.50;2406.40;;;;;;5091845;28;20066;-63
2021/06/23 00:30:43;;;;;;;38.25;15.05;;;640.50;2406.40;;;;;;5092101;28;20024;-64
2021/06/23 00:33:17;;;;;;;37.90;13.65;;;640.50;2406.40;;;;;;5091805;28;20178;-63
2021/06/23 00:35:43;;;;;;;33.63;13.90;;;640.50;2406.40;;;;;;5091889;28;20024;-64
2021/06/23 00:38:08;;;;;;;29.23;14.13;;;640.30;2406.40;;;;;;5091875;28;20031;-64
2021/06/23 00:40:34;;;;;;;31.83;12.70;;;640.40;2406.40;;;;;;5092112;28;20018;-63
2021/06/23 00:43:02;;;;;;;33.33;13.55;;;640.20;2432.00;;;;;;5091847;28;20032;-64
2021/06/23 00:45:29;;;;;;;24.30;12.80;;;640.10;2432.00;;;;;;5091433;28;20104;-65
2021/06/23 00:47:56;;;;;;;33.55;13.00;;;640.10;2432.00;;;;;;5091963;28;20027;-65
2021/06/23 00:50:22;;;;;;;34.08;14.25;;;640.00;2432.00;;;;;;5091791;28;20025;-64
2021/06/23 00:52:51;;;;;;;36.60;15.07;;;640.10;2432.00;;;;;;5091426;28;20107;-63
2021/06/23 00:55:20;;;;;;;27.63;13.18;;;640.10;2432.00;;;;;;5091467;28;20067;-63
2021/06/23 00:57:52;;;;;;;37.75;14.32;;;640.00;2432.00;;;;;;5091249;28;20462;-64
2021/06/23 01:00:20;;;;;;;39.83;13.80;;;640.00;2432.00;;;;;;5091466;28;20028;-64
2021/06/23 01:02:47;;;;;;;31.55;14.18;;;615.20;2432.00;;;;;;5073698;28;20378;-64
2021/06/23 01:05:14;;;;;;;48.80;15.45;;;615.20;2432.00;;;;;;5091134;28;20066;-63
2021/06/23 01:07:40;;;;;;;32.70;14.00;;;615.20;2432.00;;;;;;5091193;28;20389;-65
2021/06/23 01:10:06;;;;;;;32.35;13.35;;;615.20;2432.00;;;;;;5090572;28;20024;-65
2021/06/23 01:12:57;;;;;;;30.60;13.25;;;615.20;2432.00;;;;;;5091346;28;20024;-63
2021/06/23 01:15:25;;;;;;;41.33;15.07;;;615.10;2432.00;;;;;;5091050;28;20413;-63
2021/06/23 01:17:51;;;;;;;42.13;14.32;;;614.90;2432.00;;;;;;5090913;28;20020;-63
2021/06/23 01:20:17;;;;;;;35.33;13.48;;;614.90;2432.00;;;;;;5091170;28;20045;-63
2021/06/23 01:22:44;;;;;;;36.60;13.70;;;615.00;2432.00;;;;;;5091089;28;20378;-63
2021/06/23 01:25:12;;;;;;;32.05;12.30;;;614.90;2432.00;;;;;;5090839;28;20438;-63
2021/06/23 01:27:39;;;;;;;37.80;13.82;;;615.00;2432.00;;;;;;5090677;28;20035;-63
2021/06/23 01:30:06;;;;;;;35.90;14.80;;;615.10;2432.00;;;;;;5091053;28;20466;-65
2021/06/23 01:32:32;;;;;;;39.25;14.02;;;615.10;2432.00;;;;;;5090658;28;20118;-66
2021/06/23 01:34:58;;;;;;;35.33;12.88;;;615.00;2432.00;;;;;;5090482;28;20024;-66
2021/06/23 01:37:24;;;;;;;29.88;12.95;;;615.00;2432.00;;;;;;5091047;28;20024;-65
2021/06/23 01:39:50;;;;;;;36.53;13.07;;;615.00;2432.00;;;;;;5090654;28;20515;-66
2021/06/23 01:42:15;;;;;;;35.20;12.73;;;615.10;2432.00;;;;;;5091038;28;20024;-64
2021/06/23 01:44:41;;;;;;;33.55;14.05;;;615.00;2432.00;;;;;;5090480;28;20036;-63
2021/06/23 01:47:07;;;;;;;31.67;13.30;;;615.00;2432.00;;;;;;5090760;28;20038;-65
2021/06/23 01:49:33;;;;;;;36.95;14.35;;;614.90;2432.00;;;;;;5090213;28;20070;-65
2021/06/23 01:51:59;;;;;;;26.10;12.02;;;614.80;2432.00;;;;;;5090576;28;20432;-65
2021/06/23 01:54:25;;;;;;;31.60;13.43;;;614.70;2432.00;;;;;;5090596;28;20080;-65
2021/06/23 01:56:51;;;;;;;28.92;11.63;;;614.60;2432.00;;;;;;5090405;28;20116;-65
2021/06/23 01:59:17;;;;;;;33.75;11.98;;;614.50;2432.00;;;;;;5090619;28;20106;-65
2021/06/23 02:02:24;;;;;;;27.08;13.57;;;614.40;2432.00;;;;;;5090294;28;20470;-64
2021/06/23 02:05:08;;;;;;;33.40;12.40;;;614.40;2432.00;;;;;;5075522;28;20044;-64
2021/06/23 02:07:53;;;;;;;29.98;12.18;;;614.40;2432.00;;;;;;5090346;28;20454;-64
2021/06/23 02:10:37;;;;;;;28.42;12.68;;;614.40;2432.00;;;;;;5090013;28;20030;-64
2021/06/23 02:13:28;;;;;;;28.63;13.13;;;589.70;2432.00;;;;;;5090580;28;20020;-63
2021/06/23 02:16:05;;;;;;;26.33;12.07;;;589.70;2432.00;;;;;;5089931;28;20090;-64
2021/06/23 02:18:33;;;;;;;34.17;12.52;;;589.70;2432.00;;;;;;5070004;28;20040;-65
2021/06/23 02:21:00;;;;;;;32.97;12.82;;;614.40;2432.00;;;;;;5069330;28;20094;-65
2021/06/23 02:23:27;;;;;;;33.78;12.50;;;614.40;2432.00;;;;;;5069634;28;20463;-65
2021/06/23 02:25:52;;;;;;;24.70;11.32;;;614.40;2432.00;;;;;;5069931;28;20478;-65
2021/06/23 02:28:19;;;;;;;33.92;11.77;;;614.40;2432.00;;;;;;5069704;28;20025;-64
2021/06/23 02:30:45;;;;;;;30.95;12.52;;;614.40;2432.00;;;;;;5069907;28;20444;-64
2021/06/23 02:33:12;;;;;;;31.13;11.38;;;614.40;2432.00;;;;;;5069767;28;20025;-64
2021/06/23 02:35:39;;;;;;;29.25;11.90;;;589.70;2432.00;;;;;;5069358;28;20037;-65
2021/06/23 02:38:06;;;;;;;34.83;12.90;;;589.70;2432.00;;;;;;5070004;28;20081;-65
2021/06/23 02:40:33;;;;;;;31.50;12.05;;;589.70;2432.00;;;;;;5070186;28;20068;-65
2021/06/23 02:43:00;;;;;;;30.30;11.13;;;589.70;2432.00;;;;;;5069705;28;20398;-65
2021/06/23 02:45:27;;;;;;;25.05;12.00;;;589.70;2432.00;;;;;;5069758;28;20016;-65
2021/06/23 02:47:53;;;;;;;22.95;10.50;;;589.70;2432.00;;;;;;5069817;28;20039;-65
2021/06/23 02:50:19;;;;;;;30.38;12.25;;;589.70;2432.00;;;;;;5069654;28;20082;-64
2021/06/23 02:52:45;;;;;;;32.55;11.82;;;589.70;2432.00;;;;;;5069775;28;20048;-64
2021/06/23 02:55:19;;;;;;;38.67;11.63;;;589.70;2432.00;;;;;;5069930;28;20433;-65
2021/06/23 02:57:45;;;;;;;27.45;12.52;;;589.60;2432.00;;;;;;5069780;28;20043;-65
2021/06/23 03:00:12;;;;;;;32.45;11.30;;;589.60;2432.00;;;;;;5069771;28;20028;-65
2021/06/23 03:02:38;;;;;;;29.10;12.98;;;589.60;2432.00;;;;;;5069354;28;20033;-66
2021/06/23 03:05:04;;;;;;;34.63;11.85;;;589.60;2432.00;;;;;;5069452;28;20033;-65
2021/06/23 03:07:29;;;;;;;26.95;11.32;;;589.60;2432.00;;;;;;5069427;28;20031;-65
2021/06/23 03:10:07;;;;;;;26.67;11.63;;;589.70;2432.00;;;;;;5069541;28;20032;-65
2021/06/23 03:12:34;;;;;;;22.15;12.88;;;614.40;2432.00;;;;;;5069925;28;20111;-65
2021/06/23 03:15:00;;;;;;;30.17;11.18;;;614.40;2432.00;;;;;;5069142;28;20041;-65
2021/06/23 03:17:26;;;;;;;24.63;10.45;;;614.50;2432.00;;;;;;5069688;28;20086;-62
2021/06/23 03:19:52;;;;;;;25.80;11.95;;;614.60;2432.00;;;;;;5069480;28;20096;-66
2021/06/23 03:22:18;;;;;;;27.23;11.98;;;614.80;2432.00;;;;;;5069276;28;20033;-65
2021/06/23 03:24:44;;;;;;;31.17;12.13;;;614.80;2432.00;;;;;;5069663;28;20047;-64
2021/06/23 03:27:09;;;;;;;31.08;10.50;;;614.90;2432.00;;;;;;5069133;28;20033;-64
2021/06/23 03:29:36;;;;;;;28.95;12.10;;;615.00;2432.00;;;;;;5069192;28;20158;-64
2021/06/23 03:32:06;;;;;;;26.83;11.25;;;615.00;2432.00;;;;;;5069377;28;20023;-64
2021/06/23 03:34:31;;;;;;;32.10;11.82;;;615.00;2432.00;;;;;;5072861;28;20529;-64
2021/06/23 03:36:57;;;;;;;27.05;11.63;;;615.00;2432.00;;;;;;5072595;28;20060;-64
2021/06/23 03:39:23;;;;;;;34.95;12.18;;;615.00;2432.00;;;;;;5072950;28;20028;-65
2021/06/23 03:41:49;;;;;;;20.27;10.65;;;615.00;2432.00;;;;;;5073039;28;20385;-64
2021/06/23 03:44:14;;;;;;;34.33;11.77;;;615.00;2432.00;;;;;;5072561;28;20089;-65
2021/06/23 03:46:40;;;;;;;32.88;12.10;;;614.90;2432.00;;;;;;5072584;28;20409;-65
2021/06/23 03:49:06;;;;;;;34.45;12.18;;;615.10;2432.00;;;;;;5072750;28;20096;-64
2021/06/23 03:51:32;;;;;;;27.92;12.43;;;615.30;2432.00;;;;;;5071722;28;20021;-65
2021/06/23 03:53:58;;;;;;;26.25;12.50;;;640.00;2432.00;;;;;;5072277;28;20082;-65
2021/06/23 03:56:24;;;;;;;30.90;12.82;;;640.10;2432.00;;;;;;5071881;28;20032;-61
2021/06/23 03:58:50;;;;;;;36.60;13.43;;;640.20;2432.00;;;;;;5072231;28;20036;-63
2021/06/23 04:01:15;;;;;;;37.88;13.07;;;640.50;2406.40;;;;;;5072475;28;20031;-63
2021/06/23 04:03:41;;;;;;;33.08;12.57;;;640.70;2380.80;;;;;;5072089;28;20028;-63
2021/06/23 04:06:08;;;;;;;29.02;11.70;;;640.70;2355.20;;;;;;5072176;28;20126;-63
2021/06/23 04:08:34;;;;;;;29.40;11.75;;;640.60;2355.20;;;;;;5072523;28;20489;-63
2021/06/23 04:11:00;;;;;;;32.65;12.40;;;640.70;2355.20;;;;;;5072078;28;20024;-62
2021/06/23 04:13:25;;;;;;;25.58;12.68;;;640.90;2355.20;;;;;;5072350;28;20021;-63
2021/06/23 04:15:51;;;;;;;37.97;11.75;;;665.60;2355.20;;;;;;5071847;28;20040;-62
2021/06/23 04:18:17;;;;;;;27.52;11.50;;;665.70;2329.60;;;;;;5072188;28;20471;-64
2021/06/23 04:20:42;;;;;;;24.90;12.25;;;665.80;2329.60;;;;;;5072000;28;20032;-64
2021/06/23 04:23:08;;;;;;;37.95;13.07;;;666.20;2278.40;;;;;;5071928;28;20035;-67
2021/06/23 04:25:34;;;;;;;36.47;12.13;;;666.50;2278.40;;;;;;5072165;28;20024;-65
2021/06/23 04:28:00;;;;;;;26.52;11.45;;;691.40;2227.20;;;;;;5071972;28;20028;-66
2021/06/23 04:30:25;;;;;;;25.85;13.13;;;691.60;2227.20;;;;;;5071879;28;20028;-66
2021/06/23 04:32:51;;;;;;;36.00;11.70;;;716.80;2176.00;;;;;;5071592;28;20066;-66
2021/06/23 04:35:17;;;;;;;28.80;11.90;;;742.60;2099.20;;;;;;5071714;28;20517;-66
2021/06/23 04:37:44;;;;;;;38.40;14.88;;;768.20;1996.80;;;;;;5072019;28;20375;-66
2021/06/23 04:40:14;;;;;;;31.05;12.75;;;794.20;1920.00;;;;;;5071771;28;20115;-66
2021/06/23 04:42:40;;;;;;;28.00;13.48;;;820.10;1792.00;;;;;;5071550;28;20119;-65
2021/06/23 04:45:08;;;;;;;35.80;11.48;;;845.70;1715.20;;;;;;5071588;28;20028;-66
2021/06/23 04:47:34;;;;;;;31.48;12.02;;;871.20;1612.80;;;;;;5071797;28;20158;-66
2021/06/23 04:50:00;;;;;;;30.40;13.82;;;896.30;1561.60;;;;;;5071215;28;20112;-67
2021/06/23 04:52:26;;;;;;;27.75;11.07;;;921.70;1536.00;;;;;;5071787;28;20103;-66
2021/06/23 04:54:52;;;;;;;25.77;12.70;;;947.50;1433.60;;;;;;5071371;28;20024;-64
2021/06/23 04:57:18;;;;;;;27.08;13.63;;;972.80;1408.00;;;;;;5071548;28;20471;-65
2021/06/23 04:59:44;;;;;;;25.98;12.70;;;973.40;1331.20;;;;;;5071417;28;20479;-54
2021/06/23 05:02:10;;;;;;;32.25;21.50;;;972.80;1356.80;;;;;;5071111;28;20078;-53
2021/06/23 05:04:36;;;;;;;32.47;14.45;;;948.00;1331.20;;;;;;5071271;28;20028;-52
2021/06/23 05:07:04;;;;;;;30.48;13.73;;;947.40;1356.80;;;;;;5070869;28;20024;-54
2021/06/23 05:09:31;;;;;;;31.50;15.00;;;947.50;1331.20;;;;;;5071232;28;20040;-56
2021/06/23 05:11:57;;;;;;;27.05;13.38;;;947.40;1382.40;;;;;;5070981;28;20024;-54
2021/06/23 05:14:22;;;;;;;32.10;15.00;;;947.40;1356.80;;;;;;5070791;28;20021;-54
2021/06/23 05:16:50;;;;;;;41.83;16.48;;;947.80;1331.20;;;;;;5071032;28;20399;-54
2021/06/23 05:19:17;;;;;;;30.52;14.77;;;948.00;1305.60;;;;;;5070895;28;20020;-55
2021/06/23 05:21:43;;;;;;;34.78;13.85;;;947.50;1382.40;;;;;;5070799;28;20040;-54
2021/06/23 05:24:09;;;;;;;31.95;13.38;;;948.00;1356.80;;;;;;5070384;28;20036;-54
2021/06/23 05:26:35;;;;;;;26.88;15.00;;;948.00;1356.80;;;;;;5070891;28;20023;-54
2021/06/23 05:29:01;;;;;;;30.85;14.10;;;973.10;1356.80;;;;;;5070509;28;20121;-54
2021/06/23 05:31:27;;;;;;;28.02;14.18;;;972.90;1356.80;;;;;;5070429;28;20032;-54
2021/06/23 05:33:52;;;;;;;27.73;12.32;;;973.20;1331.20;;;;;;5070669;28;20081;-54
2021/06/23 05:36:19;;;;;;;25.42;12.70;;;998.80;1280.00;;;;;;5070362;28;20028;-54
2021/06/23 05:38:45;;;;;;;34.85;16.48;;;1024.20;1203.20;;;;;;5070588;28;20371;-54
2021/06/23 05:41:11;;;;;;;27.02;15.63;;;1024.60;1177.60;;;;;;5066888;28;20707;-61
2021/06/23 05:43:37;;;;;;;32.03;16.83;;;1049.80;1152.00;;;;;;5070166;28;20085;-55
2021/06/23 05:46:03;;;;;;;34.40;14.73;;;1050.20;1126.40;;;;;;5055440;28;20029;-55
2021/06/23 05:48:28;;;;;;;32.97;17.42;;;1050.50;1100.80;;;;;;5060418;28;20193;-54
2021/06/23 05:50:54;;;;;;;33.78;15.95;;;1050.30;1126.40;;;;;;5068853;28;20024;-55
2021/06/23 05:53:20;;;;;;;27.77;15.55;;;1050.30;1126.40;;;;;;5083962;28;20056;-55
2021/06/23 05:55:45;;;;;;;31.92;17.17;;;1075.40;1049.60;;;;;;5090389;28;20463;-54
2021/06/23 05:58:11;;;;;;;32.50;17.55;;;1075.90;1049.60;;;;;;5090482;28;20032;-56
2021/06/23 06:00:37;;;;;;;30.35;18.05;;;1100.80;1049.60;;;;;;5090243;28;20016;-55
2021/06/23 06:03:04;;;;;;;33.67;18.95;;;1101.20;1024.00;;;;;;5090385;28;20046;-63
2021/06/23 06:05:30;;;;;;;28.77;17.90;;;1101.40;1024.00;;;;;;5090084;28;20511;-59
2021/06/23 06:07:56;;;;;;;31.90;20.35;;;1127.00;998.40;;;;;;5090604;28;20032;-54
2021/06/23 06:10:23;;;;;;;35.03;19.67;;;1126.80;972.80;;;;;;5089992;28;20474;-64
2021/06/23 06:12:49;;;;;;;27.70;18.60;;;1126.60;998.40;;;;;;5090407;28;20020;-55
2021/06/23 06:15:15;;;;;;;34.00;17.88;;;1127.00;972.80;;;;;;5090175;28;20624;-57
2021/06/23 06:17:41;;;;;;;31.55;19.52;;;1152.90;947.20;;;;;;5089974;28;20386;-57
2021/06/23 06:20:07;;;;;;;38.70;20.10;;;1152.60;947.20;;;;;;5090006;28;20025;-56
2021/06/23 06:22:33;;;;;;;28.48;17.80;;;1152.50;947.20;;;;;;5089893;28;20024;-57
2021/06/23 06:25:00;;;;;;;38.38;19.08;;;1152.60;947.20;;;;;;5089926;28;20035;-57
2021/06/23 06:27:26;;;;;;;33.33;19.52;;;1178.00;896.00;;;;;;5090030;28;20024;-56
2021/06/23 06:29:52;;;;;;;40.53;19.60;;;1203.60;896.00;;;;;;5090034;28;20047;-57
2021/06/23 06:32:18;;;;;;;33.30;21.40;;;1203.60;896.00;;;;;;5090048;28;20503;-57
2021/06/23 06:34:44;;;;;;;46.80;21.90;;;1228.80;896.00;;;;;;5090018;28;20035;-56
2021/06/23 06:37:10;;;;;;;33.47;20.30;;;1229.40;844.80;;;;;;5089726;28;20404;-57
2021/06/23 06:39:36;;;;;;;32.00;20.10;;;1229.20;844.80;;;;;;5090227;28;20370;-57
2021/06/23 06:42:03;;;;;;;34.83;18.48;;;1204.10;844.80;;;;;;5090160;28;20111;-57
2021/06/23 06:44:31;;;;;;;36.38;21.55;;;1254.50;844.80;;;;;;5089657;28;20071;-57
2021/06/23 06:46:58;;;;;;;40.85;22.27;;;1255.30;819.20;;;;;;5089912;28;20031;-57
2021/06/23 06:49:27;;;;;;;41.90;22.65;;;1255.10;819.20;;;;;;5089922;28;20390;-57
2021/06/23 06:51:57;;;;;;;41.42;20.60;;;1254.80;844.80;;;;;;5089575;28;20032;-57
2021/06/23 06:54:22;;;;;;;44.40;23.17;;;1229.70;819.20;;;;;;5090313;28;20025;-57
2021/06/23 06:56:48;;;;;;;30.17;19.45;;;1254.50;819.20;;;;;;5090142;28;20488;-58
2021/06/23 06:59:14;;;;;;;40.70;21.40;;;1254.80;793.60;;;;;;5090233;28;20032;-57
2021/06/23 07:01:39;;;;;;;38.47;20.02;;;1254.90;793.60;;;;;;5089699;28;20111;-56
2021/06/23 07:04:05;;;;;;;40.30;21.00;;;1254.50;819.20;;;;;;5089930;28;20040;-57
2021/06/23 07:06:31;;;;;;;34.08;22.90;;;1255.00;819.20;;;;;;5089570;28;20351;-57
2021/06/23 07:08:56;;;;;;;35.72;20.73;;;1255.30;768.00;;;;;;5092777;28;20119;-57
2021/06/23 07:11:22;;;;;;;34.42;20.92;;;1255.30;768.00;;;;;;5093643;28;20016;-57
2021/06/23 07:13:48;;;;;;;30.23;21.15;;;1255.00;768.00;;;;;;5093362;28;20036;-56
2021/06/23 07:16:14;;;;;;;40.03;19.45;;;1280.50;742.40;;;;;;5093333;28;20044;-56
2021/06/23 07:18:39;;;;;;;37.78;20.90;;;1280.40;742.40;;;;;;5093429;28;20032;-57
2021/06/23 07:21:05;;;;;;;35.90;22.23;;;1255.10;768.00;;;;;;5093343;28;20086;-57
2021/06/23 07:23:31;;;;;;;29.73;20.40;;;1254.60;768.00;;;;;;5093107;28;20380;-57
2021/06/23 07:25:57;;;;;;;38.92;19.98;;;1255.30;742.40;;;;;;5093205;28;20043;-57
2021/06/23 07:28:38;;;;;;;36.08;20.95;;;1280.50;716.80;;;;;;5093725;28;20101;-57
2021/06/23 07:31:07;;;;;;;38.67;21.20;;;1255.30;742.40;;;;;;5093265;28;20051;-64
2021/06/23 07:33:33;;;;;;;32.10;19.65;;;1255.10;742.40;;;;;;5093224;28;20032;-56
2021/06/23 07:38:43;;;;;;;40.08;20.92;;;1280.90;691.20;;;;;;5093197;28;20051;-57
2021/06/23 07:41:09;;;;;;;39.75;20.45;;;1280.90;691.20;;;;;;5092817;28;20465;-57
2021/06/23 07:43:36;;;;;;;36.30;20.02;;;1280.90;691.20;;;;;;5093117;28;20032;-58
2021/06/23 07:46:04;;;;;;;30.63;18.35;;;1280.90;665.60;;;;;;5092861;28;20035;-57
2021/06/23 07:48:32;;;;;;;36.20;18.60;;;1255.10;716.80;;;;;;5092393;28;20081;-57
2021/06/23 08:09:48;;;;;;;29.80;17.50;;;1280.70;691.20;;;;;;5092757;28;20073;-57
2021/06/23 08:14:40;;;;;;;31.02;18.25;;;1255.10;691.20;;;;;;5091772;28;20078;-57
2021/06/23 08:17:07;;;;;;;39.42;17.35;;;1203.90;768.00;;;;;;5080269;28;20068;-55
2021/06/23 08:19:33;;;;;;;34.60;15.18;;;1177.80;768.00;;;;;;5050546;28;20095;-56
2021/06/23 08:21:59;;;;;;;30.08;14.68;;;1126.60;896.00;;;;;;5079097;28;20017;-57
2021/06/23 08:24:24;;;;;;;34.17;14.93;;;1075.80;947.20;;;;;;5072647;28;20115;-56
2021/06/23 08:26:50;;;;;;;36.97;13.30;;;1075.60;947.20;;;;;;5071267;28;20470;-58
2021/06/23 08:29:16;;;;;;;36.10;13.63;;;1049.70;998.40;;;;;;5069768;28;20104;-57
2021/06/23 08:31:42;;;;;;;39.67;14.13;;;1024.50;1024.00;;;;;;5073081;28;20073;-55
2021/06/23 08:34:08;;;;;;;29.77;14.73;;;1024.30;1024.00;;;;;;5070200;28;20036;-57
2021/06/23 08:36:33;;;;;;;31.88;13.38;;;1024.20;1049.60;;;;;;5069961;28;20048;-56
2021/06/23 08:38:59;;;;;;;31.17;14.20;;;1024.40;1024.00;;;;;;5072572;28;20059;-64
2021/06/23 08:41:26;;;;;;;34.42;14.70;;;998.80;1075.20;;;;;;5069578;28;20052;-57
2021/06/23 08:43:56;;;;;;;39.47;13.73;;;998.70;1100.80;;;;;;5070090;28;20537;-61
2021/06/23 08:46:22;;;;;;;34.30;13.65;;;998.80;1075.20;;;;;;5064559;28;20025;-56
2021/06/23 08:48:48;;;;;;;34.33;14.30;;;998.70;1075.20;;;;;;5063376;28;20044;-57
2021/06/23 08:51:14;;;;;;;38.95;14.75;;;998.80;1100.80;;;;;;5058946;28;20024;-59
2021/06/23 08:53:41;;;;;;;34.53;12.63;;;998.80;1075.20;;;;;;5072278;28;20020;-61
2021/06/23 08:56:07;;;;;;;37.65;14.40;;;998.90;1075.20;;;;;;5069883;28;20057;-56
2021/06/23 08:58:33;;;;;;;31.15;13.43;;;998.80;1100.80;;;;;;5064818;28;20076;-57
2021/06/23 09:00:59;;;;;;;28.50;12.02;;;998.80;1075.20;;;;;;5051295;28;20025;-56
2021/06/23 09:03:25;;;;;;;33.00;13.13;;;998.80;1100.80;;;;;;5051403;28;20390;-57
2021/06/23 09:05:56;;;;;;;36.63;11.80;;;998.80;1100.80;;;;;;5050908;28;20013;-59
2021/06/23 09:08:36;;;;;;;32.95;11.60;;;998.60;1126.40;;;;;;5050644;28;20028;-57
2021/06/23 09:11:14;;;;;;;31.15;13.13;;;998.60;1126.40;;;;;;5051367;28;20387;-57
2021/06/23 09:13:40;;;;;;;40.05;13.13;;;973.70;1100.80;;;;;;5050909;28;20033;-57
2021/06/23 09:16:05;;;;;;;29.40;13.10;;;998.60;1126.40;;;;;;5066328;28;20056;-57
2021/06/23 09:18:37;;;;;;;37.03;13.07;;;973.70;1126.40;;;;;;5070912;28;20035;-56
2021/06/23 09:21:11;;;;;;;27.35;12.50;;;973.60;1126.40;;;;;;5070852;28;20143;-56
2021/06/23 09:23:52;;;;;;;33.88;13.00;;;973.70;1126.40;;;;;;5070929;28;20036;-57
2021/06/23 09:26:20;;;;;;;41.30;14.15;;;973.60;1152.00;;;;;;5070902;28;20429;-57
2021/06/23 09:29:05;;;;;;;23.77;11.25;;;973.40;1177.60;;;;;;5070913;28;20024;-57
2021/06/23 09:31:49;;;;;;;27.80;12.60;;;973.50;1126.40;;;;;;5069769;28;20040;-57
2021/06/23 09:34:22;;;;;;;39.67;14.27;;;973.40;1152.00;;;;;;5070918;28;20058;-57
2021/06/23 09:36:48;;;;;;;40.13;13.38;;;973.30;1152.00;;;;;;5052780;28;20025;-57
2021/06/23 09:39:27;;;;;;;34.08;13.90;;;973.30;1152.00;;;;;;5070559;28;20033;-55
2021/06/23 09:41:54;;;;;;;29.20;12.25;;;973.40;1152.00;;;;;;5070517;28;20090;-56
2021/06/23 09:44:22;;;;;;;32.78;12.40;;;973.20;1126.40;;;;;;5070154;28;20040;-56
2021/06/23 09:46:50;;;;;;;27.50;10.88;;;973.40;1126.40;;;;;;5070429;28;20036;-57
2021/06/23 09:49:22;;;;;;;31.35;12.48;;;973.50;1075.20;;;;;;5070855;28;20025;-56
2021/06/23 09:51:50;;;;;;;;;;;973.30;1126.40;;;;;;5070826;28;20037;-57
2021/06/23 09:54:21;;;;;;;38.65;12.48;;;973.40;1126.40;;;;;;5070658;28;19909;-57
2021/06/23 09:56:47;;;;;;;31.70;11.40;;;973.40;1126.40;;;;;;5070463;28;20020;-57
2021/06/23 09:59:43;;;;;;;31.58;12.57;;;973.40;1126.40;;;;;;5070560;28;20035;-57
2021/06/23 10:02:21;;;;;;;31.63;12.65;;;973.10;1152.00;;;;;;5070090;28;20036;-57
2021/06/23 10:04:47;;;;;;;23.38;11.05;;;973.10;1126.40;;;;;;5070458;28;20043;-57
2021/06/23 10:07:13;;;;;;;28.60;12.05;;;973.20;1126.40;;;;;;5070258;28;20386;-57
2021/06/23 10:09:38;;;;;;;26.98;12.40;;;973.00;1152.00;;;;;;5070083;28;20103;-57
2021/06/23 10:12:06;;;;;;;28.17;12.10;;;948.10;1100.80;;;;;;5070204;28;20017;-57
2021/06/23 10:14:40;;;;;;;29.98;12.98;;;948.00;1126.40;;;;;;5069873;28;20479;-57
2021/06/23 10:17:06;;;;;;;23.48;11.43;;;948.00;1126.40;;;;;;5070099;28;20063;-55
2021/06/23 10:19:32;;;;;;;35.78;12.55;;;947.60;1126.40;;;;;;5070099;28;20020;-57
2021/06/23 10:22:01;;;;;;;33.72;13.15;;;922.50;1126.40;;;;;;5069667;28;20027;-57
2021/06/23 10:24:28;;;;;;;27.73;11.25;;;947.50;1126.40;;;;;;5069769;28;20032;-57
2021/06/23 10:26:56;;;;;;;30.30;12.13;;;947.60;1152.00;;;;;;5069965;28;20040;-57
2021/06/23 10:29:28;;;;;;;33.05;12.40;;;947.60;1152.00;;;;;;5075495;28;20078;-60
2021/06/23 10:31:54;;;;;;;35.00;12.77;;;947.60;1177.60;;;;;;5070035;28;20063;-55
2021/06/23 10:34:21;;;;;;;22.35;10.77;;;947.80;1177.60;;;;;;5069659;28;20099;-56
2021/06/23 10:36:48;;;;;;;23.90;10.38;;;947.70;1177.60;;;;;;5070054;28;20027;-60
2021/06/23 10:39:15;;;;;;;30.90;12.43;;;947.90;1177.60;;;;;;5070017;28;20048;-56
2021/06/23 10:41:44;;;;;;;22.33;11.55;;;947.80;1203.20;;;;;;5070637;28;20137;-57
2021/06/23 10:44:25;;;;;;;27.42;11.43;;;948.00;1177.60;;;;;;5073713;28;20048;-56
2021/06/23 10:47:01;;;;;;;24.38;13.30;;;948.10;1152.00;;;;;;5073711;28;20386;-56
2021/06/23 10:49:38;;;;;;;25.90;12.35;;;948.10;1152.00;;;;;;5074193;28;20032;-57
2021/06/23 10:52:31;;;;;;;34.25;12.63;;;947.80;1152.00;;;;;;5074011;28;20036;-57
2021/06/23 10:55:28;;;;;;;32.13;12.00;;;948.00;1152.00;;;;;;5071047;28;20426;-56
2021/06/23 10:58:05;;;;;;;25.63;12.45;;;948.00;1152.00;;;;;;5073664;28;20062;-56
2021/06/23 11:00:32;;;;;;;34.30;12.38;;;947.80;1177.60;;;;;;5073349;28;20425;-56
2021/06/23 11:03:06;;;;;;;31.45;12.38;;;947.80;1126.40;;;;;;5073485;28;20383;-56
2021/06/23 11:05:50;;;;;;;29.05;12.20;;;948.00;1152.00;;;;;;5073629;28;20075;-57
2021/06/23 11:08:29;;;;;;;23.13;11.00;;;947.80;1177.60;;;;;;5073551;28;20028;-56
2021/06/23 11:10:57;;;;;;;25.92;11.32;;;947.80;1152.00;;;;;;5073612;28;20052;-57
2021/06/23 11:13:29;;;;;;;23.73;11.73;;;947.80;1152.00;;;;;;5073635;28;20419;-56
2021/06/23 11:15:55;;;;;;;30.27;12.65;;;948.00;1152.00;;;;;;5073144;28;20052;-56
2021/06/23 11:18:40;;;;;;;33.15;12.20;;;948.10;1152.00;;;;;;5073185;28;20033;-56
2021/06/23 11:21:06;;;;;;;29.90;12.02;;;947.80;1100.80;;;;;;5073344;28;20028;-56
2021/06/23 11:23:59;;;;;;;31.20;12.40;;;922.50;1152.00;;;;;;5072214;28;20086;-55
2021/06/23 11:26:25;;;;;;;;;;;947.40;1203.20;;;;;;5073727;28;20027;-56
2021/06/23 11:28:57;;;;;;;37.20;11.60;;;947.50;1152.00;;;;;;5073006;28;19904;-56
2021/06/23 11:31:54;;;;;;;33.17;12.00;;;947.60;1203.20;;;;;;5073567;28;20025;-55
2021/06/23 11:34:38;;;;;;;30.00;11.80;;;947.60;1177.60;;;;;;5087388;28;20075;-56
2021/06/23 11:37:08;;;;;;;42.50;13.25;;;947.60;1126.40;;;;;;5091435;28;20028;-56
2021/06/23 11:39:34;;;;;;;30.60;12.57;;;947.60;1152.00;;;;;;5091454;28;20501;-56
2021/06/23 11:42:00;;;;;;;30.17;11.85;;;947.70;1152.00;;;;;;5091308;28;20378;-56
2021/06/23 11:44:26;;;;;;;36.95;12.20;;;947.80;1152.00;;;;;;5090825;28;20040;-56
2021/06/23 11:46:54;;;;;;;31.70;11.73;;;947.80;1177.60;;;;;;5091536;28;20063;-56
2021/06/23 11:49:20;;;;;;;32.42;11.73;;;948.00;1177.60;;;;;;5091193;28;20027;-57
2021/06/23 11:51:45;;;;;;;26.02;11.48;;;948.10;1152.00;;;;;;5091444;28;20035;-56
2021/06/23 11:54:13;;;;;;;33.60;11.75;;;948.10;1100.80;;;;;;5090297;28;20043;-57
2021/06/23 11:56:39;;;;;;;30.60;11.77;;;947.80;1100.80;;;;;;5091130;28;20135;-57
2021/06/23 11:59:05;;;;;;;27.80;12.07;;;947.40;1126.40;;;;;;5090911;28;20040;-56
2021/06/23 12:01:31;;;;;;;25.15;11.15;;;947.30;1126.40;;;;;;5090976;28;20031;-56
2021/06/23 12:03:56;;;;;;;33.08;12.35;;;922.50;1126.40;;;;;;5091211;28;20036;-58
2021/06/23 12:06:22;;;;;;;31.15;11.40;;;947.30;1152.00;;;;;;5091188;28;20108;-56
2021/06/23 12:08:48;;;;;;;29.80;11.55;;;947.50;1100.80;;;;;;5090694;28;20036;-56
2021/06/23 12:11:14;;;;;;;37.83;11.40;;;947.50;1152.00;;;;;;5090519;28;20072;-56
2021/06/23 12:13:40;;;;;;;32.03;11.70;;;947.70;1177.60;;;;;;5090937;28;20032;-56
2021/06/23 12:16:05;;;;;;;33.78;11.90;;;947.70;1177.60;;;;;;5076033;28;20532;-56
2021/06/23 12:18:31;;;;;;;27.23;12.18;;;947.80;1100.80;;;;;;5072521;28;20033;-56
2021/06/23 12:20:57;;;;;;;34.40;12.63;;;947.70;1100.80;;;;;;5072253;28;20055;-56
2021/06/23 12:23:23;;;;;;;22.40;11.27;;;947.70;1152.00;;;;;;5072065;28;20041;-57
2021/06/23 12:25:50;;;;;;;25.55;11.15;;;947.80;1152.00;;;;;;5072027;28;20467;-56
2021/06/23 12:28:17;;;;;;;29.00;12.70;;;947.70;1075.20;;;;;;5072304;28;20440;-56